Terminal Aerodrome Forecast
Issued by NWS Pueblo, CO

Home | Current Version | Previous Version | Text Only | Print | Product List | Glossary On
Versions: 1 2 3 4 5 6 7 8 9 10 11 12 13 14 15 16 17 18 19 20 21 22 23 24 25 26
000
FTUS45 KPUB 261120
TAFPUB
TAF
KPUB 261120Z 2612/2712 33008KT P6SM VCSH SCT040 OVC090
     FM261500 35018G28KT P6SM VCSH SCT050 BKN100
     FM262100 01014KT P6SM SCT050 BKN100
     FM270200 06008KT P6SM SCT090 BKN150=

USA.gov is the U.S. government's official web portal to all federal, state and local government web resources and services.